Time;durP1;ratioP1;P1;durP2;ratioP2;P2;SDS_P1;SDS_P2;PMS_P1;PMS_P2;Temp;Humidity;BMP_temperature;BMP_pressure;BME280_temperature;BME280_humidity;BME280_pressure;Samples;Min_cycle;Max_cycle;Signal;HPM_P1;HPM_P2
2021/07/07 00:00:35;;;;;;;1.50;1.40;;;;;;;;;;462146;257;27459;-70
2021/07/07 00:02:38;;;;;;;1.47;1.37;;;;;;;;;;462116;257;27980;-70
2021/07/07 00:04:40;;;;;;;1.30;1.30;;;;;;;;;;462135;257;28065;-69
2021/07/07 00:06:42;;;;;;;1.80;1.60;;;;;;;;;;462139;257;27507;-70
2021/07/07 00:08:44;;;;;;;1.60;1.50;;;;;;;;;;462138;257;27566;-69
2021/07/07 00:10:47;;;;;;;1.10;1.10;;;;;;;;;;462175;257;27652;-69
2021/07/07 00:12:49;;;;;;;1.47;1.37;;;;;;;;;;462158;257;27574;-69
2021/07/07 00:14:51;;;;;;;1.83;1.53;;;;;;;;;;462149;257;27639;-69
2021/07/07 00:16:53;;;;;;;1.37;1.37;;;;;;;;;;462142;257;27506;-69
2021/07/07 00:18:55;;;;;;;1.50;1.40;;;;;;;;;;471056;236;27453;-69
2021/07/07 00:20:57;;;;;;;1.60;1.50;;;;;;;;;;470573;252;27683;-69
2021/07/07 00:22:59;;;;;;;2.77;1.50;;;;;;;;;;477672;249;27446;-69
2021/07/07 00:25:01;;;;;;;1.50;1.40;;;;;;;;;;477686;249;27517;-68
2021/07/07 00:27:03;;;;;;;1.60;1.50;;;;;;;;;;477703;249;27528;-70
2021/07/07 00:29:06;;;;;;;1.70;1.60;;;;;;;;;;480375;239;27412;-69
2021/07/07 00:31:08;;;;;;;1.30;1.20;;;;;;;;;;492932;241;27975;-70
2021/07/07 00:33:10;;;;;;;1.40;1.30;;;;;;;;;;492133;241;27508;-69
2021/07/07 00:35:15;;;;;;;1.60;1.50;;;;;;;;;;489180;242;28091;-69
2021/07/07 00:37:17;;;;;;;1.40;1.30;;;;;;;;;;492881;241;27505;-70
2021/07/07 00:39:19;;;;;;;1.43;1.33;;;;;;;;;;497324;232;27608;-68
2021/07/07 00:41:21;;;;;;;1.03;1.03;;;;;;;;;;504137;236;27505;-68
2021/07/07 00:43:24;;;;;;;1.40;1.30;;;;;;;;;;503798;236;27503;-70
2021/07/07 00:45:26;;;;;;;1.13;1.13;;;;;;;;;;504119;236;27482;-69
2021/07/07 00:47:29;;;;;;;1.30;1.30;;;;;;;;;;504158;236;27335;-71
2021/07/07 00:49:31;;;;;;;1.00;1.00;;;;;;;;;;479182;236;27433;-71
2021/07/07 00:51:33;;;;;;;1.37;1.30;;;;;;;;;;468251;253;27493;-70
2021/07/07 00:53:35;;;;;;;1.93;1.50;;;;;;;;;;468230;252;28435;-69
2021/07/07 00:55:37;;;;;;;1.37;1.30;;;;;;;;;;468180;254;28078;-69
2021/07/07 00:57:44;;;;;;;1.30;1.20;;;;;;;;;;468237;254;27457;-71
2021/07/07 00:59:45;;;;;;;1.33;1.23;;;;;;;;;;475054;240;27476;-70
2021/07/07 01:01:46;;;;;;;1.53;1.40;;;;;;;;;;475423;250;27417;-69
2021/07/07 01:03:48;;;;;;;1.50;1.40;;;;;;;;;;468384;254;28054;-69
2021/07/07 01:05:50;;;;;;;1.77;1.63;;;;;;;;;;475475;250;27511;-70
2021/07/07 01:07:53;;;;;;;1.20;1.20;;;;;;;;;;468419;254;27710;-69
2021/07/07 01:09:55;;;;;;;1.50;1.40;;;;;;;;;;471042;239;27893;-69
2021/07/07 01:11:57;;;;;;;1.47;1.37;;;;;;;;;;469258;253;28036;-69
2021/07/07 01:13:59;;;;;;;1.50;1.40;;;;;;;;;;469290;253;27446;-70
2021/07/07 01:16:01;;;;;;;1.60;1.50;;;;;;;;;;469219;253;28040;-70
2021/07/07 01:20:11;;;;;;;3.40;1.90;;;;;;;;;;477396;236;28297;-69
2021/07/07 01:22:13;;;;;;;1.60;1.50;;;;;;;;;;485868;245;27642;-69
2021/07/07 01:24:15;;;;;;;1.43;1.33;;;;;;;;;;476637;249;28297;-69
2021/07/07 01:26:18;;;;;;;1.40;1.30;;;;;;;;;;485833;244;28461;-70
2021/07/07 01:28:21;;;;;;;1.27;1.23;;;;;;;;;;476052;242;28436;-70
2021/07/07 01:30:22;;;;;;;1.53;1.43;;;;;;;;;;460180;258;27767;-70
2021/07/07 01:32:25;;;;;;;1.40;1.30;;;;;;;;;;459816;258;29407;-70
2021/07/07 01:34:27;;;;;;;1.50;1.40;;;;;;;;;;459811;258;27625;-70
2021/07/07 01:36:29;;;;;;;1.60;1.47;;;;;;;;;;459798;258;27942;-70
2021/07/07 01:38:31;;;;;;;1.53;1.43;;;;;;;;;;460945;242;28644;-70
2021/07/07 01:40:33;;;;;;;1.77;1.20;;;;;;;;;;465754;253;28538;-70
2021/07/07 01:42:35;;;;;;;1.30;1.30;;;;;;;;;;465738;253;28039;-70
2021/07/07 01:44:37;;;;;;;1.40;1.30;;;;;;;;;;465726;255;28822;-70
2021/07/07 01:46:40;;;;;;;1.47;1.37;;;;;;;;;;465756;253;27658;-70
2021/07/07 01:48:42;;;;;;;2.30;1.13;;;;;;;;;;469318;241;27892;-70
2021/07/07 01:50:44;;;;;;;2.73;1.37;;;;;;;;;;478094;249;27520;-70
2021/07/07 01:52:46;;;;;;;1.90;1.60;;;;;;;;;;478042;249;27521;-70
2021/07/07 01:54:48;;;;;;;1.73;1.50;;;;;;;;;;478054;249;27647;-70
2021/07/07 01:56:50;;;;;;;1.80;1.70;;;;;;;;;;478053;249;28568;-70
2021/07/07 01:58:52;;;;;;;1.40;1.30;;;;;;;;;;476370;245;27647;-70
2021/07/07 02:00:54;;;;;;;1.57;1.53;;;;;;;;;;482310;246;27983;-69
2021/07/07 02:02:57;;;;;;;1.60;1.50;;;;;;;;;;491663;241;28368;-70
2021/07/07 02:05:01;;;;;;;1.40;1.40;;;;;;;;;;491676;241;28647;-70
2021/07/07 02:07:05;;;;;;;1.40;1.30;;;;;;;;;;491690;242;27925;-70
2021/07/07 02:09:07;;;;;;;1.57;1.47;;;;;;;;;;485233;235;29354;-70
2021/07/07 02:11:09;;;;;;;1.87;1.43;;;;;;;;;;477807;249;27417;-70
2021/07/07 02:13:11;;;;;;;2.00;1.63;;;;;;;;;;477815;249;29230;-70
2021/07/07 02:15:13;;;;;;;1.60;1.50;;;;;;;;;;477811;249;29828;-71
2021/07/07 02:17:15;;;;;;;2.20;1.33;;;;;;;;;;477784;249;27891;-70
2021/07/07 02:19:17;;;;;;;1.70;1.40;;;;;;;;;;477749;249;28904;-70
2021/07/07 02:21:19;;;;;;;2.10;1.90;;;;;;;;;;477765;249;27464;-70
2021/07/07 02:23:24;;;;;;;1.40;1.30;;;;;;;;;;477790;249;27941;-68
2021/07/07 02:25:24;;;;;;;1.40;1.30;;;;;;;;;;485488;242;28178;-69
2021/07/07 02:27:26;;;;;;;1.70;1.60;;;;;;;;;;484606;245;27659;-68
2021/07/07 02:29:28;;;;;;;1.77;1.67;;;;;;;;;;485983;236;27535;-69
2021/07/07 02:31:30;;;;;;;1.40;1.40;;;;;;;;;;488212;243;28174;-69
2021/07/07 02:33:32;;;;;;;1.80;1.70;;;;;;;;;;488192;243;27744;-69
2021/07/07 02:35:34;;;;;;;1.60;1.50;;;;;;;;;;488190;243;28075;-70
2021/07/07 02:37:36;;;;;;;1.70;1.60;;;;;;;;;;488202;243;29061;-69
2021/07/07 02:39:38;;;;;;;2.97;1.27;;;;;;;;;;486611;240;28008;-69
2021/07/07 02:41:41;;;;;;;1.40;1.40;;;;;;;;;;487235;240;28515;-69
2021/07/07 02:43:43;;;;;;;1.50;1.40;;;;;;;;;;487215;244;27564;-69
2021/07/07 02:45:45;;;;;;;2.50;1.50;;;;;;;;;;487189;244;28181;-69
2021/07/07 02:47:47;;;;;;;1.63;1.53;;;;;;;;;;487201;244;27430;-69
2021/07/07 02:49:49;;;;;;;1.67;1.57;;;;;;;;;;480610;244;28251;-69
2021/07/07 02:51:51;;;;;;;1.90;1.67;;;;;;;;;;476912;249;28005;-69
2021/07/07 02:53:53;;;;;;;1.40;1.33;;;;;;;;;;478007;249;27999;-69
2021/07/07 02:55:56;;;;;;;2.80;1.67;;;;;;;;;;476206;250;28511;-69
2021/07/07 02:57:58;;;;;;;1.60;1.50;;;;;;;;;;485803;244;28061;-69
2021/07/07 03:00:00;;;;;;;1.50;1.40;;;;;;;;;;484247;238;27869;-69
2021/07/07 03:02:02;;;;;;;2.70;1.80;;;;;;;;;;483613;245;27770;-69
2021/07/07 03:04:04;;;;;;;2.30;1.47;;;;;;;;;;483610;245;28768;-68
2021/07/07 03:06:08;;;;;;;1.73;1.53;;;;;;;;;;483579;246;27932;-69
2021/07/07 03:10:31;;;;;;;1.80;1.70;;;;;;;;;;485078;244;28593;-68
2021/07/07 03:12:33;;;;;;;1.60;1.50;;;;;;;;;;485071;245;27976;-69
2021/07/07 03:14:35;;;;;;;1.70;1.40;;;;;;;;;;485080;245;28457;-69
2021/07/07 03:16:37;;;;;;;2.13;1.50;;;;;;;;;;485083;244;27891;-69
2021/07/07 03:18:40;;;;;;;1.30;1.30;;;;;;;;;;485051;245;28041;-69
2021/07/07 03:20:41;;;;;;;1.70;1.60;;;;;;;;;;485080;244;27534;-69
2021/07/07 03:22:44;;;;;;;1.40;1.40;;;;;;;;;;485070;244;28079;-70
2021/07/07 03:24:46;;;;;;;1.63;1.53;;;;;;;;;;485056;245;28819;-68
2021/07/07 03:26:48;;;;;;;1.33;1.33;;;;;;;;;;485045;245;29045;-69
2021/07/07 03:28:50;;;;;;;1.53;1.43;;;;;;;;;;482456;237;28196;-69
2021/07/07 03:30:52;;;;;;;1.67;1.33;;;;;;;;;;476535;249;28468;-69
2021/07/07 03:32:54;;;;;;;1.83;1.50;;;;;;;;;;476559;249;28507;-69
2021/07/07 03:34:56;;;;;;;1.50;1.40;;;;;;;;;;476554;249;28853;-69
2021/07/07 03:36:58;;;;;;;1.40;1.30;;;;;;;;;;476548;249;28081;-69
2021/07/07 03:39:01;;;;;;;1.63;1.53;;;;;;;;;;474999;236;28885;-69
2021/07/07 03:41:03;;;;;;;2.00;1.47;;;;;;;;;;471589;252;28085;-69
2021/07/07 03:43:05;;;;;;;1.60;1.50;;;;;;;;;;480205;248;28817;-69
2021/07/07 03:45:07;;;;;;;1.50;1.40;;;;;;;;;;480173;248;29245;-69
2021/07/07 03:47:09;;;;;;;1.50;1.50;;;;;;;;;;480183;248;27903;-69
2021/07/07 03:49:11;;;;;;;1.97;1.77;;;;;;;;;;480193;244;28393;-69
2021/07/07 03:51:13;;;;;;;1.50;1.40;;;;;;;;;;480167;248;29069;-68
2021/07/07 03:53:16;;;;;;;1.70;1.50;;;;;;;;;;480082;248;27557;-69
2021/07/07 03:55:18;;;;;;;1.80;1.70;;;;;;;;;;480059;248;27668;-69
2021/07/07 03:57:20;;;;;;;1.70;1.60;;;;;;;;;;480159;248;28507;-69
2021/07/07 03:59:22;;;;;;;3.07;1.50;;;;;;;;;;487212;234;28679;-69
2021/07/07 04:01:24;;;;;;;2.93;1.60;;;;;;;;;;496173;240;28563;-69
2021/07/07 04:03:26;;;;;;;1.10;1.10;;;;;;;;;;496167;240;28421;-68
2021/07/07 04:05:28;;;;;;;1.60;1.50;;;;;;;;;;496158;240;27964;-68
2021/07/07 04:07:30;;;;;;;1.60;1.50;;;;;;;;;;496173;240;28272;-68
2021/07/07 04:09:32;;;;;;;1.70;1.60;;;;;;;;;;496191;240;27568;-69
2021/07/07 04:11:35;;;;;;;1.10;1.10;;;;;;;;;;496215;240;28477;-69
2021/07/07 04:13:37;;;;;;;1.53;1.43;;;;;;;;;;496193;240;27544;-68
2021/07/07 04:15:39;;;;;;;1.50;1.40;;;;;;;;;;496224;240;28482;-69
2021/07/07 04:17:41;;;;;;;1.30;1.20;;;;;;;;;;496244;240;27879;-69
2021/07/07 04:19:43;;;;;;;1.40;1.30;;;;;;;;;;496241;240;29021;-69
2021/07/07 04:21:45;;;;;;;1.20;1.20;;;;;;;;;;496214;240;27969;-69
2021/07/07 04:23:47;;;;;;;1.20;1.20;;;;;;;;;;496222;240;27518;-69
2021/07/07 04:25:49;;;;;;;1.83;1.47;;;;;;;;;;496243;240;27506;-69
2021/07/07 04:27:51;;;;;;;1.40;1.30;;;;;;;;;;496211;240;28393;-69
2021/07/07 04:29:54;;;;;;;1.23;1.23;;;;;;;;;;496200;240;27935;-69
2021/07/07 04:31:57;;;;;;;1.57;1.47;;;;;;;;;;496209;240;28696;-69
2021/07/07 04:33:58;;;;;;;1.57;1.30;;;;;;;;;;496153;240;29177;-69
2021/07/07 04:36:00;;;;;;;1.30;1.20;;;;;;;;;;496209;240;27856;-68
2021/07/07 04:38:02;;;;;;;1.10;1.10;;;;;;;;;;496216;239;28382;-69
2021/07/07 04:40:04;;;;;;;1.27;1.27;;;;;;;;;;484343;240;27979;-69
2021/07/07 04:42:06;;;;;;;1.63;1.53;;;;;;;;;;482944;245;29068;-69
2021/07/07 04:44:08;;;;;;;1.40;1.30;;;;;;;;;;482912;246;28951;-69
2021/07/07 04:46:11;;;;;;;1.43;1.33;;;;;;;;;;482902;246;30162;-69
2021/07/07 04:48:13;;;;;;;1.87;1.40;;;;;;;;;;482887;246;27575;-69
2021/07/07 04:50:15;;;;;;;1.43;1.33;;;;;;;;;;482891;246;28434;-69
2021/07/07 04:52:17;;;;;;;1.37;1.27;;;;;;;;;;482876;246;28147;-69
2021/07/07 04:54:19;;;;;;;1.50;1.40;;;;;;;;;;482859;246;27557;-69
2021/07/07 04:56:21;;;;;;;1.40;1.30;;;;;;;;;;482923;246;27530;-69
2021/07/07 04:58:26;;;;;;;1.10;1.10;;;;;;;;;;480650;245;27609;-69
2021/07/07 05:00:28;;;;;;;1.57;1.40;;;;;;;;;;473851;251;27501;-69
2021/07/07 05:02:30;;;;;;;1.50;1.50;;;;;;;;;;468281;253;27541;-69
2021/07/07 05:04:33;;;;;;;1.30;1.20;;;;;;;;;;473835;251;28894;-69
2021/07/07 05:06:35;;;;;;;1.40;1.40;;;;;;;;;;468308;253;27933;-69
2021/07/07 05:08:37;;;;;;;1.60;1.50;;;;;;;;;;464468;256;27508;-69
2021/07/07 05:10:39;;;;;;;1.50;1.43;;;;;;;;;;473870;251;27522;-69
2021/07/07 05:12:41;;;;;;;1.30;1.20;;;;;;;;;;468275;253;27581;-69
2021/07/07 05:14:43;;;;;;;1.33;1.30;;;;;;;;;;473848;251;27903;-71
2021/07/07 05:16:45;;;;;;;1.67;1.30;;;;;;;;;;468278;253;27450;-69
2021/07/07 05:18:47;;;;;;;2.30;1.47;;;;;;;;;;477707;237;27498;-69
2021/07/07 05:20:49;;;;;;;1.40;1.37;;;;;;;;;;486080;245;27505;-70
2021/07/07 05:22:52;;;;;;;2.33;1.30;;;;;;;;;;485106;245;27772;-71
2021/07/07 05:24:54;;;;;;;1.37;1.27;;;;;;;;;;485075;245;27614;-71
2021/07/07 05:26:56;;;;;;;1.20;1.20;;;;;;;;;;485086;245;27532;-70
2021/07/07 05:28:58;;;;;;;1.47;1.37;;;;;;;;;;481541;242;27552;-69
2021/07/07 05:31:07;;;;;;;1.30;1.30;;;;;;;;;;476290;250;27534;-70
2021/07/07 05:33:09;;;;;;;1.23;1.17;;;;;;;;;;475670;247;27648;-69
2021/07/07 05:35:10;;;;;;;3.70;1.20;;;;;;;;;;476458;249;27494;-71
2021/07/07 05:37:12;;;;;;;1.60;1.50;;;;;;;;;;473071;250;27588;-69
2021/07/07 05:39:15;;;;;;;1.20;1.20;;;;;;;;;;475710;249;27607;-70
2021/07/07 05:41:17;;;;;;;1.83;1.73;;;;;;;;;;474834;250;27643;-71
2021/07/07 05:43:19;;;;;;;1.63;1.53;;;;;;;;;;473732;251;27570;-69
2021/07/07 05:45:21;;;;;;;1.37;1.27;;;;;;;;;;476684;249;27403;-69
2021/07/07 05:47:24;;;;;;;1.50;1.40;;;;;;;;;;474922;250;27653;-70
2021/07/07 05:49:25;;;;;;;1.70;1.60;;;;;;;;;;471459;241;27519;-69
2021/07/07 05:51:27;;;;;;;1.53;1.43;;;;;;;;;;488300;243;27372;-69
2021/07/07 05:53:29;;;;;;;1.33;1.23;;;;;;;;;;488317;243;27368;-69
2021/07/07 05:55:32;;;;;;;1.10;1.10;;;;;;;;;;488283;243;27436;-69
2021/07/07 05:57:37;;;;;;;1.43;1.33;;;;;;;;;;488278;243;27411;-69
2021/07/07 05:59:39;;;;;;;2.23;1.50;;;;;;;;;;488273;243;27510;-69
2021/07/07 06:01:41;;;;;;;1.80;1.43;;;;;;;;;;488293;243;28006;-69
2021/07/07 06:03:43;;;;;;;1.97;1.60;;;;;;;;;;488281;243;27404;-69
2021/07/07 06:05:45;;;;;;;1.70;1.30;;;;;;;;;;488290;243;28746;-69
2021/07/07 06:07:47;;;;;;;1.40;1.30;;;;;;;;;;488308;243;27419;-69
2021/07/07 06:09:49;;;;;;;1.73;1.63;;;;;;;;;;488277;243;27526;-69
2021/07/07 06:11:52;;;;;;;1.57;1.40;;;;;;;;;;488253;243;27859;-69
2021/07/07 06:13:54;;;;;;;2.00;1.80;;;;;;;;;;488292;243;27423;-69
2021/07/07 06:15:56;;;;;;;1.47;1.37;;;;;;;;;;488276;243;27408;-70
2021/07/07 06:17:59;;;;;;;1.50;1.40;;;;;;;;;;488271;243;27749;-71
2021/07/07 06:20:00;;;;;;;3.17;1.40;;;;;;;;;;488227;243;27427;-69
2021/07/07 06:22:02;;;;;;;1.50;1.40;;;;;;;;;;488312;243;27501;-70
2021/07/07 06:24:04;;;;;;;1.83;1.40;;;;;;;;;;488282;243;27420;-71
2021/07/07 06:26:06;;;;;;;1.77;1.40;;;;;;;;;;488289;243;27385;-71
2021/07/07 06:30:16;;;;;;;1.60;1.50;;;;;;;;;;477801;242;27549;-69
2021/07/07 06:32:18;;;;;;;1.43;1.30;;;;;;;;;;489875;241;28594;-70
2021/07/07 06:34:20;;;;;;;1.53;1.43;;;;;;;;;;491734;241;27536;-69
2021/07/07 06:36:22;;;;;;;1.30;1.30;;;;;;;;;;491754;241;28457;-70
2021/07/07 06:38:24;;;;;;;1.83;1.50;;;;;;;;;;491785;241;27649;-71
2021/07/07 06:40:26;;;;;;;1.40;1.30;;;;;;;;;;491741;241;27513;-71
2021/07/07 06:42:28;;;;;;;1.47;1.37;;;;;;;;;;491762;241;27610;-70
2021/07/07 06:44:31;;;;;;;1.60;1.50;;;;;;;;;;491734;241;27524;-69
2021/07/07 06:46:35;;;;;;;6.63;1.77;;;;;;;;;;491766;241;27501;-69
2021/07/07 06:48:35;;;;;;;1.83;1.33;;;;;;;;;;491628;241;27457;-69
2021/07/07 06:50:37;;;;;;;1.67;1.57;;;;;;;;;;491761;241;27569;-69
2021/07/07 06:52:39;;;;;;;1.80;1.70;;;;;;;;;;491764;241;27468;-69
2021/07/07 06:54:42;;;;;;;1.73;1.50;;;;;;;;;;491803;241;27538;-71
2021/07/07 06:56:43;;;;;;;1.70;1.60;;;;;;;;;;491762;241;27467;-70
2021/07/07 06:58:45;;;;;;;1.70;1.60;;;;;;;;;;491796;241;27493;-71
2021/07/07 07:00:48;;;;;;;1.60;1.50;;;;;;;;;;491781;238;27473;-68
2021/07/07 07:02:50;;;;;;;1.70;1.60;;;;;;;;;;491776;241;27488;-68
2021/07/07 07:04:52;;;;;;;2.40;2.20;;;;;;;;;;491740;241;27560;-69
2021/07/07 07:06:54;;;;;;;1.77;1.67;;;;;;;;;;491767;241;27479;-70
2021/07/07 07:08:56;;;;;;;2.03;1.63;;;;;;;;;;491783;241;27455;-71
2021/07/07 07:10:58;;;;;;;1.60;1.50;;;;;;;;;;491748;241;27484;-71
2021/07/07 07:13:00;;;;;;;1.67;1.57;;;;;;;;;;491776;241;27536;-70
2021/07/07 07:15:02;;;;;;;2.10;1.40;;;;;;;;;;491758;241;27563;-71
2021/07/07 07:17:04;;;;;;;1.80;1.30;;;;;;;;;;491754;241;27468;-71
2021/07/07 07:19:06;;;;;;;1.83;1.73;;;;;;;;;;491797;241;27507;-69
2021/07/07 07:21:09;;;;;;;1.73;1.50;;;;;;;;;;491799;241;27522;-71
2021/07/07 07:23:11;;;;;;;1.73;1.50;;;;;;;;;;491777;241;27528;-70
2021/07/07 07:25:13;;;;;;;3.00;1.40;;;;;;;;;;491704;241;27507;-69
2021/07/07 07:27:15;;;;;;;2.50;1.43;;;;;;;;;;491769;241;27515;-69
2021/07/07 07:29:17;;;;;;;1.60;1.50;;;;;;;;;;491748;241;27563;-69
2021/07/07 07:31:19;;;;;;;1.40;1.30;;;;;;;;;;491773;241;27520;-71
2021/07/07 07:33:21;;;;;;;1.80;1.50;;;;;;;;;;491727;241;27520;-71
2021/07/07 07:35:23;;;;;;;1.90;1.80;;;;;;;;;;491744;241;27621;-70
2021/07/07 07:37:36;;;;;;;1.90;1.80;;;;;;;;;;491715;241;27581;-70
2021/07/07 07:39:28;;;;;;;3.33;1.80;;;;;;;;;;491125;241;27538;-69
2021/07/07 07:41:30;;;;;;;1.77;1.60;;;;;;;;;;491724;241;27511;-71
2021/07/07 07:43:32;;;;;;;1.70;1.60;;;;;;;;;;491750;239;27606;-69
2021/07/07 07:45:34;;;;;;;2.00;1.80;;;;;;;;;;491760;241;27477;-69
2021/07/07 07:47:36;;;;;;;1.67;1.57;;;;;;;;;;491758;241;27539;-69
2021/07/07 07:49:38;;;;;;;1.57;1.47;;;;;;;;;;491759;241;27501;-69
2021/07/07 07:51:41;;;;;;;2.13;1.40;;;;;;;;;;491770;241;27526;-69
2021/07/07 07:53:43;;;;;;;4.23;1.70;;;;;;;;;;491738;241;27563;-70
2021/07/07 07:55:45;;;;;;;4.10;2.03;;;;;;;;;;491702;241;27619;-69
2021/07/07 07:57:48;;;;;;;1.90;1.80;;;;;;;;;;491746;241;27551;-71
2021/07/07 07:59:49;;;;;;;2.00;1.80;;;;;;;;;;482506;236;27442;-70
2021/07/07 08:01:51;;;;;;;1.80;1.70;;;;;;;;;;481189;245;27410;-69
2021/07/07 08:03:53;;;;;;;2.90;1.40;;;;;;;;;;481186;245;27411;-69
2021/07/07 08:05:55;;;;;;;1.70;1.60;;;;;;;;;;481172;245;27502;-69
2021/07/07 08:08:01;;;;;;;1.70;1.60;;;;;;;;;;481166;245;27495;-70
2021/07/07 08:09:59;;;;;;;1.80;1.40;;;;;;;;;;480946;247;27438;-69
2021/07/07 08:12:01;;;;;;;1.97;1.77;;;;;;;;;;481172;245;27434;-69
2021/07/07 08:14:04;;;;;;;1.87;1.73;;;;;;;;;;481144;245;27418;-71
2021/07/07 08:16:06;;;;;;;3.13;1.83;;;;;;;;;;481192;245;27517;-71
2021/07/07 08:18:08;;;;;;;2.73;1.60;;;;;;;;;;481198;245;27482;-71
2021/07/07 08:20:10;;;;;;;1.77;1.67;;;;;;;;;;481176;245;27581;-71
2021/07/07 08:22:12;;;;;;;2.60;1.50;;;;;;;;;;481120;245;27470;-71
2021/07/07 08:24:14;;;;;;;2.33;1.60;;;;;;;;;;481185;245;27395;-69
2021/07/07 08:26:17;;;;;;;1.50;1.40;;;;;;;;;;481148;247;27847;-70
2021/07/07 08:28:20;;;;;;;2.50;1.73;;;;;;;;;;481168;245;27495;-69
2021/07/07 08:30:22;;;;;;;1.93;1.70;;;;;;;;;;481171;245;27419;-70
2021/07/07 08:32:24;;;;;;;1.80;1.70;;;;;;;;;;481174;245;27474;-69
2021/07/07 08:34:26;;;;;;;1.87;1.67;;;;;;;;;;481184;245;27506;-70
2021/07/07 08:36:28;;;;;;;2.07;1.87;;;;;;;;;;481171;245;27399;-69
2021/07/07 08:38:30;;;;;;;2.37;1.80;;;;;;;;;;479356;245;27507;-69
2021/07/07 08:40:33;;;;;;;1.63;1.53;;;;;;;;;;476408;249;27421;-71
2021/07/07 08:42:35;;;;;;;1.87;1.73;;;;;;;;;;476427;249;28661;-69
2021/07/07 08:44:37;;;;;;;1.70;1.60;;;;;;;;;;476520;249;27527;-69
2021/07/07 08:46:39;;;;;;;1.73;1.63;;;;;;;;;;494506;240;28047;-69
2021/07/07 08:48:41;;;;;;;3.60;1.90;;;;;;;;;;494529;240;27479;-70
2021/07/07 08:50:43;;;;;;;1.90;1.80;;;;;;;;;;494531;240;27998;-71
2021/07/07 08:52:45;;;;;;;2.97;1.70;;;;;;;;;;494526;240;27409;-71
2021/07/07 08:54:48;;;;;;;1.93;1.70;;;;;;;;;;494510;240;27916;-71
2021/07/07 08:56:49;;;;;;;2.53;2.17;;;;;;;;;;494515;240;27501;-71
2021/07/07 08:58:52;;;;;;;2.57;1.60;;;;;;;;;;494538;240;27880;-71
2021/07/07 09:00:54;;;;;;;1.97;1.70;;;;;;;;;;494514;240;27413;-71
2021/07/07 09:02:56;;;;;;;2.03;1.80;;;;;;;;;;494492;240;27979;-69
2021/07/07 09:04:58;;;;;;;1.53;1.40;;;;;;;;;;494524;240;27565;-69
2021/07/07 09:07:00;;;;;;;1.67;1.57;;;;;;;;;;494495;240;27985;-69
2021/07/07 09:09:03;;;;;;;2.93;1.50;;;;;;;;;;491544;240;27491;-71
2021/07/07 09:11:04;;;;;;;2.07;1.97;;;;;;;;;;494703;240;28013;-70
2021/07/07 09:13:10;;;;;;;1.57;1.47;;;;;;;;;;493726;241;27526;-70
2021/07/07 09:15:12;;;;;;;3.10;1.80;;;;;;;;;;493749;240;27910;-71
2021/07/07 09:17:14;;;;;;;2.30;1.90;;;;;;;;;;493736;240;27509;-71
2021/07/07 09:19:16;;;;;;;4.23;2.10;;;;;;;;;;487778;239;28002;-71
2021/07/07 09:21:18;;;;;;;1.93;1.70;;;;;;;;;;500406;236;27454;-71
2021/07/07 09:23:20;;;;;;;4.20;2.40;;;;;;;;;;500080;235;27810;-71
2021/07/07 09:25:24;;;;;;;3.87;2.43;;;;;;;;;;500069;235;27362;-71
2021/07/07 09:27:24;;;;;;;2.97;2.07;;;;;;;;;;500584;236;27918;-71
2021/07/07 09:29:27;;;;;;;4.37;2.10;;;;;;;;;;489288;235;27442;-70
2021/07/07 09:31:29;;;;;;;3.10;1.80;;;;;;;;;;489525;242;27993;-71
2021/07/07 09:33:41;;;;;;;4.80;2.07;;;;;;;;;;490277;239;27382;-71
2021/07/07 09:35:33;;;;;;;2.30;2.10;;;;;;;;;;492927;239;27863;-70
2021/07/07 09:37:44;;;;;;;2.97;1.90;;;;;;;;;;496657;239;27390;-71
2021/07/07 09:39:43;;;;;;;2.40;2.00;;;;;;;;;;488979;237;27562;-71
2021/07/07 09:41:46;;;;;;;3.27;2.10;;;;;;;;;;491483;240;27839;-69
2021/07/07 09:43:48;;;;;;;3.53;2.00;;;;;;;;;;490737;241;27384;-71
2021/07/07 09:45:50;;;;;;;2.63;1.80;;;;;;;;;;491458;241;27886;-71
2021/07/07 09:47:52;;;;;;;3.60;2.13;;;;;;;;;;490798;241;27565;-70
2021/07/07 09:49:54;;;;;;;7.13;2.27;;;;;;;;;;495852;234;27924;-71
2021/07/07 09:51:56;;;;;;;3.00;1.90;;;;;;;;;;497306;239;27471;-70
2021/07/07 09:54:01;;;;;;;2.23;1.80;;;;;;;;;;496344;239;27948;-71
2021/07/07 09:56:03;;;;;;;3.37;1.90;;;;;;;;;;496245;239;27490;-69
2021/07/07 10:00:29;;;;;;;2.20;1.73;;;;;;;;;;487478;243;27511;-71
2021/07/07 10:02:29;;;;;;;3.07;1.77;;;;;;;;;;487609;244;27420;-70
2021/07/07 10:04:34;;;;;;;2.53;2.20;;;;;;;;;;488053;243;28011;-71
2021/07/07 10:06:36;;;;;;;2.27;1.70;;;;;;;;;;487878;243;27407;-69
2021/07/07 10:08:38;;;;;;;2.47;1.90;;;;;;;;;;486931;237;27409;-70
2021/07/07 10:10:40;;;;;;;1.67;1.57;;;;;;;;;;481486;247;27411;-70
2021/07/07 10:12:42;;;;;;;2.30;1.60;;;;;;;;;;481452;247;27485;-70
2021/07/07 10:14:44;;;;;;;2.20;1.70;;;;;;;;;;480844;246;27406;-71
2021/07/07 10:16:46;;;;;;;2.40;1.67;;;;;;;;;;481429;247;27868;-69
2021/07/07 10:18:48;;;;;;;5.50;2.07;;;;;;;;;;481431;247;27509;-71
2021/07/07 10:20:51;;;;;;;2.57;1.93;;;;;;;;;;481420;247;27869;-69
2021/07/07 10:22:53;;;;;;;3.13;1.93;;;;;;;;;;481429;247;27475;-71
2021/07/07 10:24:55;;;;;;;2.00;1.90;;;;;;;;;;481426;247;27959;-71
2021/07/07 10:26:57;;;;;;;5.00;2.00;;;;;;;;;;481434;247;27527;-71
2021/07/07 10:28:59;;;;;;;3.00;2.20;;;;;;;;;;479728;237;27889;-71
2021/07/07 10:31:02;;;;;;;6.80;1.77;;;;;;;;;;480512;247;27582;-69
2021/07/07 10:33:03;;;;;;;2.93;1.77;;;;;;;;;;480528;246;28003;-72
2021/07/07 10:35:05;;;;;;;2.60;2.03;;;;;;;;;;480511;246;27541;-71
2021/07/07 10:37:09;;;;;;;2.83;1.70;;;;;;;;;;480558;246;27990;-71
2021/07/07 10:39:11;;;;;;;4.00;1.93;;;;;;;;;;480136;235;27502;-71
2021/07/07 10:41:13;;;;;;;3.30;1.90;;;;;;;;;;479402;248;28071;-70
2021/07/07 10:43:15;;;;;;;1.70;1.60;;;;;;;;;;479423;248;27500;-71
2021/07/07 10:45:18;;;;;;;1.70;1.53;;;;;;;;;;467606;254;28055;-71
2021/07/07 10:47:20;;;;;;;3.07;1.80;;;;;;;;;;476806;249;27653;-69
2021/07/07 10:49:22;;;;;;;2.13;1.90;;;;;;;;;;471327;243;28090;-70
2021/07/07 10:51:24;;;;;;;5.10;2.00;;;;;;;;;;466594;255;27677;-71
2021/07/07 10:53:26;;;;;;;4.00;2.00;;;;;;;;;;466158;255;28074;-71
2021/07/07 10:55:28;;;;;;;2.70;1.77;;;;;;;;;;466602;255;27559;-71
2021/07/07 10:57:40;;;;;;;3.03;1.80;;;;;;;;;;466599;255;28189;-71
2021/07/07 10:59:33;;;;;;;2.90;1.80;;;;;;;;;;470712;237;27557;-71
2021/07/07 11:01:35;;;;;;;3.57;2.33;;;;;;;;;;487207;243;27980;-69
2021/07/07 11:03:38;;;;;;;4.57;2.10;;;;;;;;;;487181;243;27505;-71
2021/07/07 11:05:39;;;;;;;2.60;1.83;;;;;;;;;;487104;243;27877;-71
2021/07/07 11:07:41;;;;;;;2.53;2.00;;;;;;;;;;487194;244;27999;-71
2021/07/07 11:09:43;;;;;;;3.37;2.03;;;;;;;;;;476061;236;27568;-71
2021/07/07 11:11:45;;;;;;;2.50;1.70;;;;;;;;;;470752;250;28058;-71
2021/07/07 11:13:47;;;;;;;2.27;1.67;;;;;;;;;;470763;250;27544;-71
2021/07/07 11:15:50;;;;;;;3.97;1.87;;;;;;;;;;470745;250;27931;-71
2021/07/07 11:17:52;;;;;;;2.60;1.80;;;;;;;;;;470763;250;27549;-71
2021/07/07 11:19:54;;;;;;;1.90;1.63;;;;;;;;;;471232;239;27543;-71
2021/07/07 11:21:56;;;;;;;3.67;1.90;;;;;;;;;;466091;255;27609;-71
2021/07/07 11:23:58;;;;;;;2.43;1.73;;;;;;;;;;469412;252;27968;-71
2021/07/07 11:26:00;;;;;;;3.33;1.67;;;;;;;;;;466039;255;27526;-71
2021/07/07 11:28:02;;;;;;;2.07;1.80;;;;;;;;;;467871;253;28015;-71
2021/07/07 11:30:05;;;;;;;3.33;1.80;;;;;;;;;;487868;236;27504;-71
2021/07/07 11:32:07;;;;;;;2.30;1.70;;;;;;;;;;489170;240;28002;-71
2021/07/07 11:34:09;;;;;;;2.07;1.57;;;;;;;;;;489163;238;27484;-71
2021/07/07 11:36:14;;;;;;;2.17;1.60;;;;;;;;;;489170;240;27899;-71
2021/07/07 11:38:13;;;;;;;2.17;1.60;;;;;;;;;;489094;240;27576;-71
2021/07/07 11:40:15;;;;;;;2.93;1.67;;;;;;;;;;489177;240;27960;-71
2021/07/07 11:42:17;;;;;;;3.97;1.87;;;;;;;;;;489161;240;27624;-71
2021/07/07 11:44:19;;;;;;;1.97;1.70;;;;;;;;;;489142;240;28084;-71
2021/07/07 11:46:23;;;;;;;2.33;1.90;;;;;;;;;;489175;240;27515;-71
2021/07/07 11:50:26;;;;;;;3.37;1.73;;;;;;;;;;486777;244;27544;-71
2021/07/07 11:52:28;;;;;;;2.57;1.87;;;;;;;;;;485806;244;27543;-71
2021/07/07 11:54:30;;;;;;;1.53;1.43;;;;;;;;;;483841;245;27505;-70
2021/07/07 11:56:35;;;;;;;3.50;1.90;;;;;;;;;;465983;253;27924;-71
2021/07/07 11:58:34;;;;;;;2.07;1.60;;;;;;;;;;465791;255;27478;-71
2021/07/07 12:00:37;;;;;;;2.07;1.53;;;;;;;;;;465991;253;27933;-71
2021/07/07 12:02:38;;;;;;;2.37;1.80;;;;;;;;;;465983;253;27480;-71
2021/07/07 12:04:41;;;;;;;1.70;1.60;;;;;;;;;;465943;253;27932;-71
2021/07/07 12:06:43;;;;;;;2.00;1.80;;;;;;;;;;465985;253;27457;-71
2021/07/07 12:08:45;;;;;;;1.93;1.83;;;;;;;;;;471325;238;28274;-69
2021/07/07 12:10:47;;;;;;;2.17;1.77;;;;;;;;;;484265;244;27431;-71
2021/07/07 12:12:49;;;;;;;1.50;1.40;;;;;;;;;;484278;245;27864;-71
2021/07/07 12:14:51;;;;;;;2.60;1.73;;;;;;;;;;484314;245;27431;-71
2021/07/07 12:16:53;;;;;;;2.40;1.70;;;;;;;;;;484235;244;27850;-71
2021/07/07 12:18:55;;;;;;;1.67;1.57;;;;;;;;;;483673;241;27423;-71
2021/07/07 12:20:58;;;;;;;1.77;1.60;;;;;;;;;;476082;249;28127;-71
2021/07/07 12:23:00;;;;;;;1.73;1.57;;;;;;;;;;482494;246;27842;-71